Time;durP1;ratioP1;P1;durP2;ratioP2;P2;SDS_P1;SDS_P2;PMS_P1;PMS_P2;Temp;Humidity;BMP_temperature;BMP_pressure;BME280_temperature;BME280_humidity;BME280_pressure;Samples;Min_cycle;Max_cycle;Signal;HPM_P1;HPM_P2
2021/04/04 00:01:12;;;;;;;28.27;25.45;;;;;;;;;;5081526;28;20205;-71
2021/04/04 00:03:38;;;;;;;28.48;25.42;;;;;;;;;;5079234;28;20279;-71
2021/04/04 00:06:05;;;;;;;26.50;24.10;;;;;;;;;;5079349;28;20239;-72
2021/04/04 00:08:33;;;;;;;27.10;24.55;;;;;;;;;;5078733;28;20249;-71
2021/04/04 00:11:00;;;;;;;28.08;23.92;;;;;;;;;;5079749;28;20651;-71
2021/04/04 00:13:27;;;;;;;26.75;24.20;;;;;;;;;;5081719;28;20207;-71
2021/04/04 00:15:54;;;;;;;27.30;24.60;;;;;;;;;;5077697;28;20197;-72
2021/04/04 00:18:21;;;;;;;26.08;23.98;;;;;;;;;;5071639;28;20205;-71
2021/04/04 00:20:48;;;;;;;26.58;24.42;;;;;;;;;;5073477;28;20201;-71
2021/04/04 00:23:14;;;;;;;28.15;25.25;;;;;;;;;;5073357;28;20190;-71
2021/04/04 00:25:42;;;;;;;27.85;25.10;;;;;;;;;;5073697;28;20186;-71
2021/04/04 00:28:09;;;;;;;26.80;24.15;;;;;;;;;;5073323;28;20190;-71
2021/04/04 00:30:36;;;;;;;27.80;25.05;;;;;;;;;;5073369;28;20673;-71
2021/04/04 00:33:03;;;;;;;27.40;24.88;;;;;;;;;;5073537;28;20221;-71
2021/04/04 00:35:30;;;;;;;25.73;23.63;;;;;;;;;;5072059;28;20742;-71
2021/04/04 00:37:57;;;;;;;34.65;24.70;;;;;;;;;;5073629;28;20193;-71
2021/04/04 00:40:25;;;;;;;29.38;25.35;;;;;;;;;;5073133;28;20221;-72
2021/04/04 00:42:53;;;;;;;25.60;23.30;;;;;;;;;;5073141;28;20194;-71
2021/04/04 00:45:20;;;;;;;27.20;24.73;;;;;;;;;;5072989;28;20800;-71
2021/04/04 00:47:47;;;;;;;26.98;24.40;;;;;;;;;;5073293;28;20258;-71
2021/04/04 00:50:15;;;;;;;27.13;24.33;;;;;;;;;;5073053;28;20205;-72
2021/04/04 00:52:43;;;;;;;26.05;23.77;;;;;;;;;;5073123;28;20197;-72
2021/04/04 00:55:11;;;;;;;31.70;26.73;;;;;;;;;;5073055;28;20542;-71
2021/04/04 00:57:38;;;;;;;27.67;24.80;;;;;;;;;;5073194;28;20190;-71
2021/04/04 01:00:08;;;;;;;27.08;24.38;;;;;;;;;;5073243;28;20218;-71
2021/04/04 01:02:35;;;;;;;26.95;24.40;;;;;;;;;;5073219;28;20206;-71
2021/04/04 01:05:03;;;;;;;28.17;25.65;;;;;;;;;;5073256;28;20190;-71
2021/04/04 01:07:32;;;;;;;27.90;25.15;;;;;;;;;;5073174;28;20204;-71
2021/04/04 01:09:59;;;;;;;27.02;24.63;;;;;;;;;;5073446;28;20204;-72
2021/04/04 01:12:30;;;;;;;27.40;24.92;;;;;;;;;;5073475;28;20190;-72
2021/04/04 01:14:59;;;;;;;30.15;26.75;;;;;;;;;;5072855;28;20193;-71
2021/04/04 01:17:28;;;;;;;27.67;25.02;;;;;;;;;;5073132;28;20214;-71
2021/04/04 01:20:05;;;;;;;27.63;25.20;;;;;;;;;;5072733;28;20217;-72
2021/04/04 01:22:51;;;;;;;27.33;25.02;;;;;;;;;;5072812;28;20597;-71
2021/04/04 01:25:22;;;;;;;28.10;25.60;;;;;;;;;;5063193;28;20205;-71
2021/04/04 01:27:53;;;;;;;29.88;25.27;;;;;;;;;;5072916;28;20198;-71
2021/04/04 01:30:23;;;;;;;32.30;24.55;;;;;;;;;;5073586;28;20190;-71
2021/04/04 01:32:50;;;;;;;28.65;25.92;;;;;;;;;;5075294;28;20205;-72
2021/04/04 01:35:18;;;;;;;28.10;25.25;;;;;;;;;;5076448;28;20225;-71
2021/04/04 01:37:46;;;;;;;30.40;27.50;;;;;;;;;;5076535;28;20201;-71
2021/04/04 01:40:16;;;;;;;25.95;23.70;;;;;;;;;;5076379;28;20218;-71
2021/04/04 01:42:43;;;;;;;27.00;24.23;;;;;;;;;;5076081;28;20194;-72
2021/04/04 01:45:12;;;;;;;27.80;25.48;;;;;;;;;;5076422;28;20197;-72
2021/04/04 01:47:39;;;;;;;28.85;25.40;;;;;;;;;;5076270;28;20193;-71
2021/04/04 01:50:07;;;;;;;25.90;23.47;;;;;;;;;;5075972;28;20201;-71
2021/04/04 01:52:34;;;;;;;32.78;27.42;;;;;;;;;;5075883;28;20450;-72
2021/04/04 01:55:02;;;;;;;27.05;24.40;;;;;;;;;;5075724;28;20613;-71
2021/04/04 01:57:29;;;;;;;29.83;25.08;;;;;;;;;;5076473;28;20540;-71
2021/04/04 01:59:57;;;;;;;27.50;24.90;;;;;;;;;;5076100;28;20266;-72
2021/04/04 02:02:24;;;;;;;27.60;24.75;;;;;;;;;;5076077;28;20595;-71
2021/04/04 02:04:52;;;;;;;28.15;25.50;;;;;;;;;;5076036;28;20192;-71
2021/04/04 02:07:19;;;;;;;30.58;26.35;;;;;;;;;;5075690;28;20649;-71
2021/04/04 02:09:46;;;;;;;27.63;24.90;;;;;;;;;;5075914;28;20190;-72
2021/04/04 02:12:14;;;;;;;26.58;24.33;;;;;;;;;;5075827;28;20636;-71
2021/04/04 02:14:42;;;;;;;28.60;25.30;;;;;;;;;;5075561;28;20209;-72
2021/04/04 02:17:10;;;;;;;28.27;24.33;;;;;;;;;;5075796;28;20314;-71
2021/04/04 02:19:38;;;;;;;27.20;24.70;;;;;;;;;;5075700;28;20226;-71
2021/04/04 02:22:05;;;;;;;26.70;24.17;;;;;;;;;;5075521;28;20459;-71
2021/04/04 02:24:33;;;;;;;25.17;23.02;;;;;;;;;;5075633;28;20655;-72
2021/04/04 02:27:00;;;;;;;26.52;24.13;;;;;;;;;;5075121;28;20190;-71
2021/04/04 02:29:27;;;;;;;29.50;23.35;;;;;;;;;;5075288;28;20697;-71
2021/04/04 02:31:55;;;;;;;26.00;23.35;;;;;;;;;;5075199;28;20195;-71
2021/04/04 02:34:24;;;;;;;27.75;24.67;;;;;;;;;;5075389;28;20230;-71
2021/04/04 02:36:52;;;;;;;27.23;24.52;;;;;;;;;;5075344;28;20225;-71
2021/04/04 02:39:20;;;;;;;26.33;24.00;;;;;;;;;;5075254;28;20217;-71
2021/04/04 02:41:47;;;;;;;26.45;23.90;;;;;;;;;;5074803;28;20197;-71
2021/04/04 02:44:14;;;;;;;27.27;24.70;;;;;;;;;;5075274;28;20190;-71
2021/04/04 02:46:43;;;;;;;27.67;24.77;;;;;;;;;;5074963;28;20300;-72
2021/04/04 02:49:10;;;;;;;29.55;24.58;;;;;;;;;;5075150;28;20196;-72
2021/04/04 02:51:39;;;;;;;27.02;24.63;;;;;;;;;;5074545;28;20761;-71
2021/04/04 02:54:08;;;;;;;26.83;24.40;;;;;;;;;;5074602;28;20240;-71
2021/04/04 02:56:36;;;;;;;27.77;25.02;;;;;;;;;;5074863;28;20190;-71
2021/04/04 02:59:04;;;;;;;27.05;24.30;;;;;;;;;;5075434;28;20221;-71
2021/04/04 03:01:32;;;;;;;27.10;23.92;;;;;;;;;;5074555;28;20185;-72
2021/04/04 03:03:59;;;;;;;27.90;25.00;;;;;;;;;;5074862;28;20201;-71
2021/04/04 03:06:27;;;;;;;28.08;24.70;;;;;;;;;;5074844;28;20190;-71
2021/04/04 03:08:54;;;;;;;26.33;23.98;;;;;;;;;;5074516;28;20220;-71
2021/04/04 03:11:23;;;;;;;25.83;23.35;;;;;;;;;;5074372;28;20197;-72
2021/04/04 03:13:50;;;;;;;30.73;24.80;;;;;;;;;;5074277;28;20213;-71
2021/04/04 03:16:19;;;;;;;28.42;25.45;;;;;;;;;;5074658;28;20190;-71
2021/04/04 03:18:46;;;;;;;28.20;23.88;;;;;;;;;;5074508;28;20248;-71
2021/04/04 03:21:13;;;;;;;25.47;23.33;;;;;;;;;;5074144;28;20198;-71
2021/04/04 03:23:41;;;;;;;26.75;24.25;;;;;;;;;;5074485;28;20510;-71
2021/04/04 03:26:08;;;;;;;27.97;25.73;;;;;;;;;;5073857;28;20609;-71
2021/04/04 03:28:37;;;;;;;27.83;24.13;;;;;;;;;;5074388;28;20529;-71
2021/04/04 03:31:04;;;;;;;27.92;24.35;;;;;;;;;;5073973;28;20194;-71
2021/04/04 03:33:31;;;;;;;27.35;24.45;;;;;;;;;;5074347;28;20193;-72
2021/04/04 03:35:59;;;;;;;26.90;24.90;;;;;;;;;;5074092;28;20236;-71
2021/04/04 03:38:27;;;;;;;26.75;24.17;;;;;;;;;;5074274;28;20193;-71
2021/04/04 03:40:55;;;;;;;27.40;23.95;;;;;;;;;;5074118;28;20274;-71
2021/04/04 03:43:22;;;;;;;31.23;25.00;;;;;;;;;;5073823;28;20200;-71
2021/04/04 03:45:52;;;;;;;28.85;24.80;;;;;;;;;;5073778;28;20200;-71
2021/04/04 03:48:20;;;;;;;26.95;24.63;;;;;;;;;;5073763;28;20197;-71
2021/04/04 03:50:47;;;;;;;26.25;23.65;;;;;;;;;;5073998;28;20209;-71
2021/04/04 03:53:15;;;;;;;25.40;23.17;;;;;;;;;;5073084;28;20240;-71
2021/04/04 03:55:43;;;;;;;26.75;24.20;;;;;;;;;;5074027;28;20187;-71
2021/04/04 03:58:10;;;;;;;26.08;23.60;;;;;;;;;;5073872;28;20198;-71
2021/04/04 04:00:38;;;;;;;25.65;23.75;;;;;;;;;;5073477;28;20214;-71
2021/04/04 04:03:08;;;;;;;27.42;24.98;;;;;;;;;;5073863;28;20193;-71
2021/04/04 04:05:35;;;;;;;26.33;23.90;;;;;;;;;;5073917;28;20555;-71
2021/04/04 04:08:03;;;;;;;24.95;22.73;;;;;;;;;;5073850;28;20236;-71
2021/04/04 04:10:30;;;;;;;26.23;24.15;;;;;;;;;;5072658;28;20189;-71
2021/04/04 04:12:59;;;;;;;30.45;25.95;;;;;;;;;;5073855;28;20190;-71
2021/04/04 04:15:28;;;;;;;26.40;23.92;;;;;;;;;;5073825;28;20193;-71
2021/04/04 04:17:55;;;;;;;27.17;24.58;;;;;;;;;;5073448;28;20194;-71
2021/04/04 04:20:23;;;;;;;27.77;25.00;;;;;;;;;;5073212;28;20230;-71
2021/04/04 04:22:50;;;;;;;26.70;24.20;;;;;;;;;;5073599;28;20527;-71
2021/04/04 04:25:18;;;;;;;26.63;24.25;;;;;;;;;;5073709;28;20615;-71
2021/04/04 04:27:46;;;;;;;27.90;25.00;;;;;;;;;;5073265;28;20696;-71
2021/04/04 04:30:13;;;;;;;25.80;23.80;;;;;;;;;;5073649;28;20193;-71
2021/04/04 04:32:41;;;;;;;25.90;23.73;;;;;;;;;;5073285;28;20197;-71
2021/04/04 04:35:09;;;;;;;27.38;24.83;;;;;;;;;;5072171;28;20222;-71
2021/04/04 04:37:40;;;;;;;25.88;22.95;;;;;;;;;;5073518;28;20263;-71
2021/04/04 04:40:08;;;;;;;26.08;23.58;;;;;;;;;;5073153;28;20221;-71
2021/04/04 04:42:36;;;;;;;26.17;23.80;;;;;;;;;;5073473;28;20201;-71
2021/04/04 04:45:04;;;;;;;26.30;24.05;;;;;;;;;;5073512;28;20193;-71
2021/04/04 04:47:31;;;;;;;26.55;24.08;;;;;;;;;;5073140;28;20193;-70
2021/04/04 04:49:58;;;;;;;26.42;24.33;;;;;;;;;;5073221;28;20616;-72
2021/04/04 04:52:26;;;;;;;25.30;23.10;;;;;;;;;;5073376;28;20194;-71
2021/04/04 04:54:53;;;;;;;25.92;23.65;;;;;;;;;;5072926;28;20230;-71
2021/04/04 04:57:20;;;;;;;25.98;23.48;;;;;;;;;;5072940;28;20576;-72
2021/04/04 04:59:48;;;;;;;26.42;24.00;;;;;;;;;;5073286;28;20229;-71
2021/04/04 05:02:16;;;;;;;26.05;23.92;;;;;;;;;;5073306;28;20186;-71
2021/04/04 05:04:46;;;;;;;26.52;24.10;;;;;;;;;;5074169;28;20208;-71
2021/04/04 05:07:13;;;;;;;26.40;24.30;;;;;;;;;;5077124;28;20200;-71
2021/04/04 05:09:41;;;;;;;27.10;24.63;;;;;;;;;;5077075;28;20197;-71
2021/04/04 05:12:09;;;;;;;26.52;23.65;;;;;;;;;;5076977;28;20197;-71
2021/04/04 05:14:38;;;;;;;25.98;23.63;;;;;;;;;;5076947;28;20198;-71
2021/04/04 05:17:05;;;;;;;27.25;24.50;;;;;;;;;;5076923;28;20193;-71
2021/04/04 05:19:32;;;;;;;28.05;25.25;;;;;;;;;;5076772;28;20224;-71
2021/04/04 05:21:59;;;;;;;25.15;23.02;;;;;;;;;;5076694;28;20205;-71
2021/04/04 05:24:26;;;;;;;27.98;25.17;;;;;;;;;;5076485;28;20194;-71
2021/04/04 05:26:53;;;;;;;26.05;23.85;;;;;;;;;;5076573;28;20247;-71
2021/04/04 05:29:21;;;;;;;26.42;23.73;;;;;;;;;;5076700;28;20189;-71
2021/04/04 05:31:49;;;;;;;26.23;23.55;;;;;;;;;;5076619;28;20208;-71
2021/04/04 05:34:16;;;;;;;25.35;23.17;;;;;;;;;;5076560;28;20542;-71
2021/04/04 05:36:47;;;;;;;26.42;23.85;;;;;;;;;;5075973;28;20584;-71
2021/04/04 05:39:16;;;;;;;24.42;22.25;;;;;;;;;;5076423;28;20215;-71
2021/04/04 05:41:44;;;;;;;25.27;22.85;;;;;;;;;;5076222;28;20594;-72
2021/04/04 05:44:11;;;;;;;25.23;23.27;;;;;;;;;;5076115;28;20185;-71
2021/04/04 05:46:43;;;;;;;25.70;22.88;;;;;;;;;;5076153;28;20189;-71
2021/04/04 05:49:15;;;;;;;25.42;23.35;;;;;;;;;;5076057;28;20229;-71
2021/04/04 05:51:46;;;;;;;25.95;23.23;;;;;;;;;;5074836;28;20205;-71
2021/04/04 05:54:31;;;;;;;26.40;24.35;;;;;;;;;;5075904;28;20233;-70
2021/04/04 05:57:00;;;;;;;28.23;25.27;;;;;;;;;;5075861;28;20193;-70
2021/04/04 05:59:31;;;;;;;31.92;25.60;;;;;;;;;;5075799;28;20217;-72
2021/04/04 06:02:27;;;;;;;24.60;22.60;;;;;;;;;;5075836;28;20185;-71
2021/04/04 06:05:02;;;;;;;23.88;22.27;;;;;;;;;;5075821;28;20224;-71
2021/04/04 06:07:45;;;;;;;26.13;23.67;;;;;;;;;;5074728;28;20240;-70
2021/04/04 06:10:13;;;;;;;25.08;22.58;;;;;;;;;;5075987;28;20185;-71
2021/04/04 06:12:55;;;;;;;26.25;23.77;;;;;;;;;;5075551;28;20200;-71
2021/04/04 06:15:25;;;;;;;25.85;23.40;;;;;;;;;;5075830;28;20203;-71
2021/04/04 06:17:56;;;;;;;27.80;25.42;;;;;;;;;;5074817;28;20231;-71
2021/04/04 06:20:32;;;;;;;25.92;23.55;;;;;;;;;;5075363;28;20217;-71
2021/04/04 06:23:05;;;;;;;27.13;24.40;;;;;;;;;;5075402;28;20193;-71
2021/04/04 06:25:39;;;;;;;27.60;25.02;;;;;;;;;;5074440;28;20201;-71
2021/04/04 06:28:10;;;;;;;26.85;24.58;;;;;;;;;;5075172;28;20189;-71
2021/04/04 06:30:50;;;;;;;27.67;25.00;;;;;;;;;;5074277;28;20262;-71
2021/04/04 06:33:23;;;;;;;24.73;22.60;;;;;;;;;;5075488;28;20193;-71
2021/04/04 06:36:10;;;;;;;25.83;23.42;;;;;;;;;;5075077;28;20232;-71
2021/04/04 06:38:46;;;;;;;27.80;25.17;;;;;;;;;;5075407;28;20191;-71
2021/04/04 06:41:22;;;;;;;26.50;23.83;;;;;;;;;;5075181;28;20221;-70
2021/04/04 06:43:54;;;;;;;25.80;23.67;;;;;;;;;;5075304;28;20220;-71
2021/04/04 06:46:27;;;;;;;25.00;23.20;;;;;;;;;;5074863;28;20191;-71
2021/04/04 06:49:01;;;;;;;26.42;23.83;;;;;;;;;;5074597;28;20200;-71
2021/04/04 06:51:44;;;;;;;26.33;23.77;;;;;;;;;;5075047;28;20250;-71
2021/04/04 06:54:19;;;;;;;26.17;23.70;;;;;;;;;;5074724;28;20286;-71
2021/04/04 06:56:56;;;;;;;24.38;22.63;;;;;;;;;;5074665;28;20639;-71
2021/04/04 06:59:26;;;;;;;30.48;24.35;;;;;;;;;;5074523;28;20701;-71
2021/04/04 07:01:59;;;;;;;25.98;23.95;;;;;;;;;;5074809;28;20239;-71
2021/04/04 07:04:32;;;;;;;26.85;24.60;;;;;;;;;;5074560;28;20225;-71
2021/04/04 07:07:17;;;;;;;25.80;23.70;;;;;;;;;;5073599;28;20205;-70
2021/04/04 07:09:54;;;;;;;23.20;21.42;;;;;;;;;;5074436;28;20583;-71
2021/04/04 07:12:28;;;;;;;25.88;23.70;;;;;;;;;;5074839;28;20196;-72
2021/04/04 07:15:01;;;;;;;25.20;23.30;;;;;;;;;;5074802;28;20243;-70
2021/04/04 07:17:41;;;;;;;25.10;23.13;;;;;;;;;;5074675;28;20186;-71
2021/04/04 07:20:16;;;;;;;25.80;23.70;;;;;;;;;;5074125;28;20751;-71
2021/04/04 07:22:49;;;;;;;26.27;23.95;;;;;;;;;;5072892;28;20192;-76
2021/04/04 07:25:30;;;;;;;24.90;22.50;;;;;;;;;;5074534;28;20200;-75
2021/04/04 07:28:09;;;;;;;25.55;23.00;;;;;;;;;;5074335;28;20263;-75
2021/04/04 07:30:37;;;;;;;23.38;21.60;;;;;;;;;;5074226;28;20190;-76
2021/04/04 07:33:19;;;;;;;24.65;22.88;;;;;;;;;;5074395;28;20209;-76
2021/04/04 07:35:50;;;;;;;24.33;22.08;;;;;;;;;;5072116;28;20304;-70
2021/04/04 07:38:20;;;;;;;24.38;22.60;;;;;;;;;;5074386;28;20544;-78
2021/04/04 07:40:52;;;;;;;24.42;22.80;;;;;;;;;;5074341;28;20255;-77
2021/04/04 07:43:22;;;;;;;24.38;22.58;;;;;;;;;;5074245;28;20243;-71
2021/04/04 07:45:54;;;;;;;23.35;21.88;;;;;;;;;;5074217;28;20201;-71
2021/04/04 07:48:24;;;;;;;23.00;21.02;;;;;;;;;;5074004;28;20184;-70
2021/04/04 07:50:58;;;;;;;24.27;22.50;;;;;;;;;;5073707;28;20662;-70
2021/04/04 07:53:28;;;;;;;23.40;21.80;;;;;;;;;;5073747;28;20705;-71
2021/04/04 07:56:01;;;;;;;24.90;23.17;;;;;;;;;;5074074;28;20187;-71
2021/04/04 07:58:31;;;;;;;24.80;23.10;;;;;;;;;;5073493;28;20555;-71
2021/04/04 08:01:01;;;;;;;23.67;21.63;;;;;;;;;;5073534;28;20221;-70
2021/04/04 08:03:33;;;;;;;24.20;22.30;;;;;;;;;;5073668;28;20412;-71
2021/04/04 08:06:02;;;;;;;24.45;22.85;;;;;;;;;;5073959;28;20566;-70
2021/04/04 08:08:31;;;;;;;24.55;22.35;;;;;;;;;;5073402;28;20619;-70
2021/04/04 08:11:01;;;;;;;24.00;22.38;;;;;;;;;;5073734;28;20198;-71
2021/04/04 08:13:32;;;;;;;24.70;22.55;;;;;;;;;;5073488;28;20188;-71
2021/04/04 08:16:06;;;;;;;24.55;22.75;;;;;;;;;;5073772;28;20194;-71
2021/04/04 08:18:33;;;;;;;24.20;22.70;;;;;;;;;;5073467;28;20190;-71
2021/04/04 08:21:02;;;;;;;24.40;22.43;;;;;;;;;;5073560;28;20897;-70
2021/04/04 08:23:30;;;;;;;23.97;22.30;;;;;;;;;;5072138;28;20421;-70
2021/04/04 08:26:00;;;;;;;24.17;22.47;;;;;;;;;;5072913;28;20452;-70
2021/04/04 08:28:33;;;;;;;24.92;22.80;;;;;;;;;;5073426;28;20441;-72
2021/04/04 08:31:03;;;;;;;25.70;23.33;;;;;;;;;;5073291;28;20195;-73
2021/04/04 08:33:35;;;;;;;24.05;22.30;;;;;;;;;;5072328;28;20497;-73
2021/04/04 08:36:02;;;;;;;23.23;21.33;;;;;;;;;;5073189;28;20222;-75
2021/04/04 08:38:33;;;;;;;24.90;22.63;;;;;;;;;;5073743;28;20618;-76
2021/04/04 08:41:00;;;;;;;23.60;21.88;;;;;;;;;;5076621;28;20215;-74
2021/04/04 08:43:27;;;;;;;23.45;21.45;;;;;;;;;;5077673;28;20276;-74
2021/04/04 08:45:59;;;;;;;23.75;21.80;;;;;;;;;;5077586;28;20195;-70
2021/04/04 08:48:27;;;;;;;24.77;22.77;;;;;;;;;;5077259;28;20199;-70
2021/04/04 08:50:54;;;;;;;38.80;24.20;;;;;;;;;;5077382;28;20445;-70
2021/04/04 08:53:25;;;;;;;24.10;22.57;;;;;;;;;;5076895;28;20463;-70
2021/04/04 08:55:52;;;;;;;25.33;23.63;;;;;;;;;;5077316;28;20945;-70
2021/04/04 08:58:21;;;;;;;25.80;23.90;;;;;;;;;;5077106;28;20198;-70
2021/04/04 09:00:51;;;;;;;26.90;24.70;;;;;;;;;;5076811;28;20465;-70
2021/04/04 09:03:20;;;;;;;24.50;22.30;;;;;;;;;;5077237;28;20449;-70
2021/04/04 09:05:47;;;;;;;24.58;22.90;;;;;;;;;;5077174;28;20188;-70
2021/04/04 09:08:15;;;;;;;24.00;22.17;;;;;;;;;;5077105;28;20215;-70
2021/04/04 09:10:46;;;;;;;23.80;22.00;;;;;;;;;;5075605;28;20417;-70
2021/04/04 09:13:14;;;;;;;25.03;22.77;;;;;;;;;;5076706;28;20637;-69
2021/04/04 09:15:48;;;;;;;24.50;22.60;;;;;;;;;;5077006;28;20438;-70
2021/04/04 09:18:16;;;;;;;23.95;21.85;;;;;;;;;;5076886;28;20251;-70
2021/04/04 09:20:45;;;;;;;24.17;22.67;;;;;;;;;;5076392;28;20688;-70
2021/04/04 09:23:13;;;;;;;24.83;22.60;;;;;;;;;;5076532;28;20992;-70
2021/04/04 09:25:48;;;;;;;24.40;22.60;;;;;;;;;;5076855;28;20438;-70
2021/04/04 09:28:15;;;;;;;24.90;23.25;;;;;;;;;;5076320;28;20404;-70
2021/04/04 09:30:43;;;;;;;25.23;23.13;;;;;;;;;;5076336;28;20194;-70
2021/04/04 09:33:11;;;;;;;24.37;22.87;;;;;;;;;;5076708;28;20773;-70
2021/04/04 09:35:40;;;;;;;24.40;22.90;;;;;;;;;;5075445;28;20443;-70
2021/04/04 09:38:11;;;;;;;25.17;23.00;;;;;;;;;;5076311;28;20198;-70
2021/04/04 09:40:39;;;;;;;24.60;22.80;;;;;;;;;;5076374;28;20456;-70
2021/04/04 09:43:07;;;;;;;23.75;22.15;;;;;;;;;;5076191;28;20484;-69
2021/04/04 09:45:34;;;;;;;23.20;21.50;;;;;;;;;;5076464;28;20195;-70
2021/04/04 09:48:16;;;;;;;23.13;21.70;;;;;;;;;;5076046;28;20441;-73
2021/04/04 09:50:43;;;;;;;25.27;23.50;;;;;;;;;;5075388;28;20407;-70
2021/04/04 09:53:11;;;;;;;25.40;23.50;;;;;;;;;;5075597;28;20561;-70
2021/04/04 09:55:44;;;;;;;24.92;23.30;;;;;;;;;;5074760;28;20893;-70
2021/04/04 09:58:14;;;;;;;27.33;24.90;;;;;;;;;;5075777;28;20198;-70
2021/04/04 10:00:43;;;;;;;24.47;22.87;;;;;;;;;;5075670;28;20984;-70
2021/04/04 10:03:11;;;;;;;24.75;23.13;;;;;;;;;;5075946;28;20446;-71
2021/04/04 10:05:40;;;;;;;24.13;22.27;;;;;;;;;;5076072;28;20191;-70
2021/04/04 10:08:09;;;;;;;24.63;22.80;;;;;;;;;;5075598;28;20944;-71
2021/04/04 10:10:37;;;;;;;23.53;22.00;;;;;;;;;;5075795;28;20468;-71
2021/04/04 10:13:05;;;;;;;32.57;29.40;;;;;;;;;;5075520;28;20754;-70
2021/04/04 10:15:41;;;;;;;27.65;25.15;;;;;;;;;;5075579;28;20426;-70
2021/04/04 10:18:08;;;;;;;25.97;24.07;;;;;;;;;;5075707;28;20190;-70
2021/04/04 10:20:37;;;;;;;22.50;21.20;;;;;;;;;;5075291;28;20460;-70
2021/04/04 10:23:04;;;;;;;25.00;23.37;;;;;;;;;;5075645;28;20434;-70
2021/04/04 10:25:31;;;;;;;25.40;23.90;;;;;;;;;;5075667;28;20416;-71
2021/04/04 10:28:03;;;;;;;26.00;24.37;;;;;;;;;;5075339;28;20892;-70
2021/04/04 10:30:31;;;;;;;23.63;22.33;;;;;;;;;;5075436;28;20482;-70
2021/04/04 10:33:17;;;;;;;24.05;22.33;;;;;;;;;;5075482;28;20215;-71
2021/04/04 10:35:43;;;;;;;25.42;23.48;;;;;;;;;;5075190;28;20695;-70
2021/04/04 10:38:11;;;;;;;24.40;22.60;;;;;;;;;;5074878;28;20689;-70
2021/04/04 10:40:42;;;;;;;25.27;23.48;;;;;;;;;;5074937;28;20972;-69
2021/04/04 10:43:10;;;;;;;25.27;23.37;;;;;;;;;;5075296;28;20184;-70
2021/04/04 10:45:37;;;;;;;23.23;21.60;;;;;;;;;;5074728;28;20408;-70
2021/04/04 10:48:06;;;;;;;27.60;25.00;;;;;;;;;;5075162;28;20434;-70
2021/04/04 10:50:33;;;;;;;27.13;25.23;;;;;;;;;;5074746;28;20410;-70
2021/04/04 10:53:00;;;;;;;31.07;28.27;;;;;;;;;;5074762;28;20195;-71
2021/04/04 10:55:28;;;;;;;25.80;24.03;;;;;;;;;;5075284;28;20427;-71
2021/04/04 10:57:55;;;;;;;27.63;25.58;;;;;;;;;;5074896;28;20815;-70
2021/04/04 11:00:24;;;;;;;25.63;23.93;;;;;;;;;;5074269;28;20254;-70
2021/04/04 11:02:50;;;;;;;24.93;23.13;;;;;;;;;;5074443;28;20415;-70
2021/04/04 11:05:20;;;;;;;26.77;24.40;;;;;;;;;;5074482;28;20417;-70
2021/04/04 11:07:49;;;;;;;24.97;23.40;;;;;;;;;;5074598;28;20436;-70
2021/04/04 11:10:16;;;;;;;25.53;23.93;;;;;;;;;;5074756;28;20769;-70
2021/04/04 11:12:43;;;;;;;25.80;23.90;;;;;;;;;;5074488;28;20858;-70
2021/04/04 11:15:13;;;;;;;31.77;29.10;;;;;;;;;;5074703;28;20484;-70
2021/04/04 11:17:44;;;;;;;29.07;26.73;;;;;;;;;;5074644;28;20195;-70
2021/04/04 11:20:12;;;;;;;26.25;24.45;;;;;;;;;;5074501;28;20803;-70
2021/04/04 11:22:40;;;;;;;26.80;24.90;;;;;;;;;;5074288;28;20245;-71
2021/04/04 11:25:10;;;;;;;26.77;24.73;;;;;;;;;;5073031;28;20489;-70
2021/04/04 11:27:41;;;;;;;38.80;35.80;;;;;;;;;;5074376;28;20427;-70
2021/04/04 11:30:14;;;;;;;24.42;22.88;;;;;;;;;;5074305;28;20532;-70
2021/04/04 11:32:42;;;;;;;23.83;22.33;;;;;;;;;;5074288;28;20199;-70
2021/04/04 11:35:09;;;;;;;24.47;22.80;;;;;;;;;;5074132;28;20480;-70
2021/04/04 11:37:38;;;;;;;24.23;22.67;;;;;;;;;;5072855;28;20518;-70
2021/04/04 11:40:12;;;;;;;24.87;22.77;;;;;;;;;;5072499;28;20448;-70
2021/04/04 11:42:39;;;;;;;29.23;26.93;;;;;;;;;;5074285;28;20419;-70
2021/04/04 11:45:07;;;;;;;26.27;24.30;;;;;;;;;;5073984;28;20410;-70
2021/04/04 11:47:34;;;;;;;24.20;22.57;;;;;;;;;;5073946;28;20642;-70
2021/04/04 11:50:01;;;;;;;23.95;22.40;;;;;;;;;;5073908;28;20415;-70
2021/04/04 11:52:38;;;;;;;24.58;22.95;;;;;;;;;;5073880;28;20514;-70
2021/04/04 11:55:06;;;;;;;29.33;26.90;;;;;;;;;;5073481;28;20234;-71
2021/04/04 11:57:33;;;;;;;27.05;25.05;;;;;;;;;;5073847;28;20628;-70
2021/04/04 12:00:01;;;;;;;26.53;24.43;;;;;;;;;;5073760;28;20321;-70
2021/04/04 12:02:29;;;;;;;23.80;22.10;;;;;;;;;;5073786;28;20887;-71
2021/04/04 12:04:59;;;;;;;26.47;24.70;;;;;;;;;;5073771;28;20457;-70
2021/04/04 12:07:28;;;;;;;23.80;22.23;;;;;;;;;;5073446;28;21014;-70
2021/04/04 12:09:56;;;;;;;23.07;21.37;;;;;;;;;;5073380;28;20416;-71
2021/04/04 12:12:23;;;;;;;23.10;21.40;;;;;;;;;;5073434;28;20532;-71
2021/04/04 12:14:51;;;;;;;22.20;20.80;;;;;;;;;;5072898;28;20448;-71
2021/04/04 12:17:18;;;;;;;22.17;20.77;;;;;;;;;;5073592;28;20416;-71
2021/04/04 12:19:46;;;;;;;22.80;21.30;;;;;;;;;;5073615;28;20764;-71
2021/04/04 12:22:13;;;;;;;22.80;21.40;;;;;;;;;;5073180;28;20762;-71
2021/04/04 12:24:42;;;;;;;23.00;21.40;;;;;;;;;;5073665;28;20416;-70
2021/04/04 12:27:09;;;;;;;21.90;20.50;;;;;;;;;;5073428;28;20432;-71
2021/04/04 12:29:43;;;;;;;24.47;22.90;;;;;;;;;;5073364;28;20461;-70
2021/04/04 12:32:10;;;;;;;22.88;21.58;;;;;;;;;;5073304;28;20452;-70
2021/04/04 12:34:41;;;;;;;22.93;21.57;;;;;;;;;;5073535;28;20223;-70
2021/04/04 12:37:12;;;;;;;22.17;20.77;;;;;;;;;;5073277;28;20441;-70
2021/04/04 12:39:39;;;;;;;21.93;20.43;;;;;;;;;;5073512;28;20499;-70
2021/04/04 12:42:12;;;;;;;22.47;21.07;;;;;;;;;;5073557;28;20420;-69
2021/04/04 12:44:41;;;;;;;22.20;20.80;;;;;;;;;;5073292;28;20405;-70
2021/04/04 12:47:11;;;;;;;22.08;20.88;;;;;;;;;;5073339;28;20424;-70
2021/04/04 12:49:40;;;;;;;22.20;20.90;;;;;;;;;;5073170;28;20244;-70
2021/04/04 12:52:08;;;;;;;24.07;22.43;;;;;;;;;;5073019;28;20434;-71
2021/04/04 12:54:35;;;;;;;22.00;20.60;;;;;;;;;;5072874;28;20539;-70
2021/04/04 12:57:02;;;;;;;23.80;22.40;;;;;;;;;;5073263;28;20409;-70
2021/04/04 12:59:30;;;;;;;23.10;21.80;;;;;;;;;;5072928;28;20546;-71
2021/04/04 13:01:57;;;;;;;22.50;21.20;;;;;;;;;;5073181;28;20460;-70
2021/04/04 13:04:24;;;;;;;22.37;21.17;;;;;;;;;;5072800;28;20412;-70
2021/04/04 13:06:52;;;;;;;23.43;22.00;;;;;;;;;;5072978;28;20413;-71
2021/04/04 13:09:19;;;;;;;22.17;20.80;;;;;;;;;;5072970;28;20493;-71
2021/04/04 13:11:47;;;;;;;23.38;22.08;;;;;;;;;;5073117;28;20421;-71
2021/04/04 13:14:25;;;;;;;23.00;21.80;;;;;;;;;;5072798;28;20192;-70
2021/04/04 13:16:58;;;;;;;22.30;21.10;;;;;;;;;;5071660;28;20412;-70
2021/04/04 13:19:26;;;;;;;24.20;22.80;;;;;;;;;;5073162;28;20437;-70
2021/04/04 13:21:53;;;;;;;22.93;21.13;;;;;;;;;;5072939;28;20459;-70
2021/04/04 13:24:20;;;;;;;22.75;21.30;;;;;;;;;;5072858;28;20898;-71
2021/04/04 13:26:47;;;;;;;23.67;21.73;;;;;;;;;;5075667;28;20206;-71
2021/04/04 13:29:17;;;;;;;23.50;21.90;;;;;;;;;;5076655;28;20436;-71
2021/04/04 13:31:52;;;;;;;22.70;21.40;;;;;;;;;;5076677;28;20186;-70
2021/04/04 13:34:20;;;;;;;23.00;21.70;;;;;;;;;;5075954;28;20463;-71
2021/04/04 13:36:57;;;;;;;23.43;22.03;;;;;;;;;;5076332;28;20457;-71
2021/04/04 13:39:25;;;;;;;22.67;21.37;;;;;;;;;;5076512;28;20408;-71
2021/04/04 13:41:53;;;;;;;23.37;22.10;;;;;;;;;;5074996;28;20460;-71
2021/04/04 13:44:21;;;;;;;25.10;23.25;;;;;;;;;;5076579;28;20429;-78
2021/04/04 13:46:49;;;;;;;22.03;20.83;;;;;;;;;;5076605;28;20202;-76
2021/04/04 13:49:16;;;;;;;21.17;20.00;;;;;;;;;;5076434;28;20416;-78
2021/04/04 13:51:45;;;;;;;22.10;20.90;;;;;;;;;;5076050;28;20412;-78
2021/04/04 13:54:12;;;;;;;22.08;20.73;;;;;;;;;;5075953;28;20231;-75
2021/04/04 13:56:49;;;;;;;22.90;21.50;;;;;;;;;;5078281;28;20186;-76
2021/04/04 13:59:18;;;;;;;22.45;20.75;;;;;;;;;;5075616;28;20412;-76
2021/04/04 14:01:46;;;;;;;22.27;20.98;;;;;;;;;;5074976;28;20283;-77
2021/04/04 14:04:17;;;;;;;23.17;21.67;;;;;;;;;;5083554;28;20202;-77
2021/04/04 14:06:45;;;;;;;22.10;20.80;;;;;;;;;;5083388;28;20403;-77
2021/04/04 14:09:13;;;;;;;22.60;21.13;;;;;;;;;;5084717;28;20472;-76
2021/04/04 14:11:41;;;;;;;22.80;21.60;;;;;;;;;;5085255;28;20463;-75
2021/04/04 14:14:09;;;;;;;23.40;22.10;;;;;;;;;;5083427;28;20431;-77
2021/04/04 14:16:36;;;;;;;24.50;23.10;;;;;;;;;;5085076;28;20504;-77
2021/04/04 14:19:03;;;;;;;23.45;21.95;;;;;;;;;;5084523;28;20195;-78
2021/04/04 14:21:30;;;;;;;23.93;22.30;;;;;;;;;;5085572;28;20233;-77
2021/04/04 14:23:58;;;;;;;23.33;22.03;;;;;;;;;;5086443;28;20446;-77
2021/04/04 14:26:25;;;;;;;22.45;21.15;;;;;;;;;;5076649;28;20460;-75
2021/04/04 14:28:52;;;;;;;23.57;22.27;;;;;;;;;;5095879;28;20197;-76